M I D A S
Marine Information and Data Acquisition System
Tripno 2007 of the Zeeleeuw from 2010-09-23 07:11:26 to 2010-09-23 15:15:19
Back to CruiseResearch ActivitiesStationsMapUnderway DataData graphs

EquipmentUnitsComment
TimeDGPSUTC
LatitudeDGPSDM.mWGS84
LongitudeDGPSDM.mWGS84
TemperatureSBE03/SBE38deg celciusITS90
ConductivitySBE21S/mITS90
SalinitySBE21 Practical Salinity Units
ChlorophylAChelsea fluorimeterg/lCalibrated in Aceton
Missing or incorrect values are displayed as -999
Sea surface data collected by the RV Zeeleeuw from 2010-09-23 06:49:20 to 2010-09-23 15:23:59
Time Latitude Longitude Temperature Conductivity Salinity ChlorophylA
2010-09-23 06:50:24 51°13.665 2°55.961 20.2102 0.071508 0.372745 -0.652328
2010-09-23 06:51:25 51°13.664 2°55.961 20.2071 0.071508 0.372778 -0.687152
2010-09-23 06:52:25 51°13.664 2°55.96 20.214 0.071508 0.372807 -0.652328
2010-09-23 06:53:25 51°13.663 2°55.961 20.2169 0.071508 0.372835 -0.687152
2010-09-23 06:54:25 51°13.663 2°55.961 20.2157 0.071508 0.372868 -0.687152
2010-09-23 06:55:24 51°13.662 2°55.961 20.2131 0.071716 0.374016 -0.687152
2010-09-23 06:56:25 51°13.662 2°55.961 20.2175 0.071612 0.37349 -0.687152
2010-09-23 06:57:25 51°13.662 2°55.961 20.2269 0.071612 0.373524 -0.687152
2010-09-23 06:58:25 51°13.663 2°55.961 20.2336 0.071612 0.373547 -0.652328
2010-09-23 06:59:25 51°13.663 2°55.961 20.2238 0.071612 0.37358 -0.652328
2010-09-23 07:00:25 51°13.663 2°55.961 20.2289 0.071612 0.373614 -0.687152
2010-09-23 07:01:25 51°13.663 2°55.961 20.2332 0.071612 0.373648 -0.652328
2010-09-23 07:02:25 51°13.663 2°55.961 20.2185 0.071612 0.373682 -0.721976
2010-09-23 07:03:25 51°13.662 2°55.961 20.2323 0.071612 0.373716 -0.687152
2010-09-23 07:04:24 51°13.662 2°55.96 20.235 0.071612 0.37375 -0.652328
2010-09-23 07:05:22 51°13.662 2°55.96 20.2354 0.071612 0.373784 -0.687152
2010-09-23 07:06:21 51°13.662 2°55.96 20.2353 0.071612 0.373818 -0.687152
2010-09-23 07:07:21 51°13.662 2°55.961 20.2375 0.071612 0.373852 -0.687152
2010-09-23 07:08:21 51°13.663 2°55.96 20.2343 0.071612 0.37388 -0.687152
2010-09-23 07:09:21 51°13.663 2°55.96 20.242 0.071612 0.373919 -0.652328
2010-09-23 07:10:21 51°13.662 2°55.96 20.2585 0.071612 0.373948 -0.652328
2010-09-23 07:11:21 51°13.663 2°55.961 20.2643 0.071612 0.373982 -0.687152
2010-09-23 07:12:21 51°13.662 2°55.961 20.2684 0.071612 0.374016 -0.687152
2010-09-23 07:13:21 51°13.662 2°55.961 20.2747 0.071612 0.374055 -0.652328
2010-09-23 07:14:21 51°13.662 2°55.961 20.2788 0.071612 0.374083 -0.687152
2010-09-23 07:15:21 51°13.661 2°55.961 20.2808 0.071612 0.374117 -0.721976
2010-09-23 07:16:21 51°13.662 2°55.956 20.2185 0.071612 0.374151 -0.687152
2010-09-23 07:17:25 51°13.679 2°55.896 20.2648 0.071612 0.37418 -0.687152
2010-09-23 07:18:25 51°13.693 2°55.804 20.2913 0.071612 0.374202 -0.687152
2010-09-23 07:19:23 51°13.7 2°55.762 20.2845 0.071612 0.374219 -0.687152
2010-09-23 07:20:23 51°13.691 2°55.747 20.3066 0.071612 0.374225 -0.652328
2010-09-23 07:21:22 51°13.728 2°55.716 20.2681 0.071612 0.374236 -0.652328
2010-09-23 07:22:22 51°13.841 2°55.623 20.1834 0.071612 0.374282 -0.687152
2010-09-23 07:23:21 51°13.981 2°55.522 20.1721 0.071612 0.37431 -0.652328
2010-09-23 07:24:21 51°14.128 2°55.412 20.2179 0.071612 0.37435 -0.687152
2010-09-23 07:25:21 51°14.28 2°55.281 20.2176 0.071612 0.374407 -0.652328
2010-09-23 07:26:20 51°14.44 2°55.114 20.0604 0.071612 0.374446 -0.687152
2010-09-23 07:27:20 51°14.613 2°54.907 20.0862 0.071612 0.374469 -0.652328
2010-09-23 07:28:21 51°14.797 2°54.704 20.189 0.071612 0.374526 -0.687152
2010-09-23 07:29:20 51°14.968 2°54.495 20.201 0.071612 0.37456 -0.687152
2010-09-23 07:30:21 51°15.144 2°54.28 20.2215 0.071612 0.374605 -0.652328
2010-09-23 07:31:21 51°15.319 2°54.068 20.1914 0.071612 0.374651 -0.687152
2010-09-23 07:32:21 51°15.493 2°53.853 20.1869 0.071612 0.374696 -0.652328
2010-09-23 07:33:21 51°15.67 2°53.638 20.2251 0.071612 0.37473 -0.687152
2010-09-23 07:34:21 51°15.849 2°53.429 20.1772 0.071612 0.37477 -0.687152
2010-09-23 07:35:21 51°16.033 2°53.237 20.1867 0.071612 0.374798 -0.687152
2010-09-23 07:36:21 51°16.215 2°53.043 20.1888 0.071612 0.374821 -0.652328
2010-09-23 07:37:21 51°16.403 2°52.866 20.2156 0.071612 0.374861 -0.687152
2010-09-23 07:38:20 51°16.587 2°52.701 20.1728 0.071612 0.374889 -0.652328
2010-09-23 07:39:21 51°16.787 2°52.582 20.2188 0.071612 0.374929 -0.687152
2010-09-23 07:40:21 51°16.984 2°52.481 20.1911 0.071612 0.374941 -0.721976
2010-09-23 07:41:21 51°17.182 2°52.376 20.2318 0.071612 0.374975 -0.687152
2010-09-23 07:42:21 51°17.381 2°52.268 20.2171 0.071612 0.374998 -0.687152
2010-09-23 07:43:21 51°17.58 2°52.161 20.2385 0.071612 0.375032 -0.687152
2010-09-23 07:44:21 51°17.777 2°52.053 20.2368 0.071612 0.375072 -0.652328
2010-09-23 07:45:21 51°17.972 2°51.936 20.2504 0.071612 0.375106 -0.687152
2010-09-23 07:46:21 51°18.171 2°51.814 20.2601 0.071612 0.375129 -0.721976
2010-09-23 07:47:21 51°18.37 2°51.685 20.2484 0.071612 0.375174 -0.687152
2010-09-23 07:48:21 51°18.57 2°51.554 20.2623 0.071612 0.375214 -0.652328
2010-09-23 07:49:21 51°18.77 2°51.42 20.2528 0.071612 0.375248 -0.652328
2010-09-23 07:50:21 51°18.968 2°51.282 20.2791 0.071612 0.375277 -0.687152
2010-09-23 07:51:21 51°19.167 2°51.145 20.2798 0.071612 0.375317 -0.652328
2010-09-23 07:52:21 51°19.365 2°51.007 20.2841 0.071612 0.375351 -0.687152
2010-09-23 07:53:21 51°19.564 2°50.871 20.2762 0.071612 0.375391 -0.687152
2010-09-23 07:54:21 51°19.763 2°50.74 20.2895 0.071612 0.37542 -0.687152
2010-09-23 07:55:21 51°19.953 2°50.615 20.3043 0.071612 0.375448 -0.687152
2010-09-23 07:56:21 51°20.136 2°50.512 20.2835 0.071612 0.375482 -0.721976
2010-09-23 07:57:21 51°20.325 2°50.441 20.2973 0.071612 0.375505 -0.652328
2010-09-23 07:58:21 51°20.519 2°50.384 20.2886 0.071612 0.375539 -0.687152
2010-09-23 07:59:21 51°20.716 2°50.353 20.2838 0.071612 0.375568 -0.687152
2010-09-23 08:00:21 51°20.912 2°50.362 20.309 0.071612 0.375602 -0.721976
2010-09-23 08:01:21 51°21.102 2°50.414 20.3148 0.071612 0.375625 -0.687152
2010-09-23 08:02:21 51°21.289 2°50.482 20.3478 0.071612 0.375642 -0.652328
2010-09-23 08:03:21 51°21.477 2°50.546 20.3382 0.071612 0.375659 -0.687152
2010-09-23 08:04:21 51°21.669 2°50.6 20.3564 0.071612 0.3757 -0.652328
2010-09-23 08:05:20 51°21.862 2°50.605 20.3954 0.071612 0.375722 -0.652328
2010-09-23 08:06:21 51°22.058 2°50.511 20.3808 0.071612 0.375734 -0.687152
2010-09-23 08:07:21 51°22.229 2°50.327 20.4009 0.071612 0.375757 -0.687152
2010-09-23 08:08:21 51°22.391 2°50.111 20.367 0.071612 0.375791 -0.687152
2010-09-23 08:09:21 51°22.562 2°49.927 20.3976 0.071612 0.375808 -0.687152
2010-09-23 08:10:21 51°22.727 2°49.755 20.4015 0.071612 0.375865 -0.687152
2010-09-23 08:11:21 51°22.89 2°49.588 20.4026 0.071612 0.375946 -0.687152
2010-09-23 08:12:21 51°23.052 2°49.418 20.4101 0.071612 0.375969 -0.687152
2010-09-23 08:13:21 51°23.216 2°49.24 20.4193 0.071508 0.375428 -0.687152
2010-09-23 08:14:21 51°23.382 2°49.061 20.4398 0.071508 0.375434 -0.687152
2010-09-23 08:15:21 51°23.549 2°48.881 20.4416 0.071508 0.375445 -0.687152
2010-09-23 08:16:21 51°23.716 2°48.7 20.4442 0.071508 0.375462 -0.652328
2010-09-23 08:17:21 51°23.884 2°48.519 20.4703 0.071508 0.375491 -0.687152
2010-09-23 08:18:21 51°24.052 2°48.338 20.4855 0.071508 0.375531 -0.687152
2010-09-23 08:19:21 51°24.223 2°48.158 20.4803 0.071508 0.375571 -0.687152
2010-09-23 08:20:21 51°24.395 2°47.979 20.4807 0.071508 0.375588 -0.687152
2010-09-23 08:21:21 51°24.566 2°47.798 20.5197 0.071508 0.375605 -0.687152
2010-09-23 08:22:21 51°24.737 2°47.617 20.5197 0.071508 0.375611 -0.687152
2010-09-23 08:23:21 51°24.908 2°47.433 20.5335 0.071508 0.37564 -0.687152
2010-09-23 08:24:21 51°25.08 2°47.248 20.5498 0.071508 0.375685 -0.721976
2010-09-23 08:25:21 51°25.25 2°47.069 20.5592 0.071508 0.37572 -0.687152
2010-09-23 08:26:21 51°25.42 2°46.894 20.5681 0.071508 0.375749 -0.687152
2010-09-23 08:27:21 51°25.59 2°46.719 20.5614 0.071508 0.3758 -0.687152
2010-09-23 08:28:21 51°25.76 2°46.551 20.5584 0.071508 0.375829 -0.687152
2010-09-23 08:29:21 51°25.936 2°46.407 20.5703 0.071508 0.375857 -0.687152
2010-09-23 08:30:21 51°26.113 2°46.261 20.5844 0.071508 0.375869 -0.652328
2010-09-23 08:31:21 51°26.29 2°46.115 20.6053 0.071508 0.375932 -0.652328
2010-09-23 08:32:20 51°26.464 2°45.968 20.617 0.071508 0.375972 -0.652328
2010-09-23 08:33:21 51°26.643 2°45.813 20.6039 0.071508 0.376007 -0.652328
2010-09-23 08:34:21 51°26.819 2°45.658 20.6219 0.071508 0.376064 -0.687152
2010-09-23 08:35:21 51°26.997 2°45.499 20.6326 0.071508 0.376127 -0.687152
2010-09-23 08:36:21 51°27.173 2°45.341 20.6477 0.071508 0.376179 -0.687152
2010-09-23 08:37:21 51°27.351 2°45.183 20.6516 0.071508 0.376219 -0.687152
2010-09-23 08:38:21 51°27.529 2°45.026 20.6588 0.071508 0.376248 -0.687152
2010-09-23 08:39:21 51°27.709 2°44.871 20.6873 0.071508 0.376277 -0.687152
2010-09-23 08:40:21 51°27.891 2°44.723 20.6929 0.071508 0.3763 -0.721976
2010-09-23 08:41:20 51°28.067 2°44.576 20.7073 0.071508 0.376323 -0.652328
2010-09-23 08:42:21 51°28.252 2°44.433 20.7037 0.071508 0.37634 -0.687152
2010-09-23 08:43:20 51°28.431 2°44.3 20.7138 0.071508 0.376363 -0.687152
2010-09-23 08:44:21 51°28.615 2°44.161 20.7321 0.071508 0.376386 -0.721976
2010-09-23 08:45:21 51°28.797 2°44.028 20.7391 0.071508 0.376415 -0.687152
2010-09-23 08:46:20 51°28.974 2°43.896 20.7275 0.071508 0.376438 -0.652328
2010-09-23 08:47:21 51°29.156 2°43.757 20.7466 0.071508 0.376461 -0.687152
2010-09-23 08:48:20 51°29.33 2°43.619 20.7658 0.071508 0.376484 -0.687152
2010-09-23 08:49:21 51°29.509 2°43.47 20.7713 0.071404 0.375942 -0.652328
2010-09-23 08:50:20 51°29.687 2°43.372 20.7691 0.071404 0.375959 -0.687152
2010-09-23 08:51:20 51°29.874 2°43.384 20.7525 0.071404 0.375988 -0.687152
2010-09-23 08:52:20 51°30.056 2°43.434 20.7958 0.071404 0.376005 -0.652328
2010-09-23 08:53:21 51°30.234 2°43.518 20.8112 0.071404 0.376034 -0.652328
2010-09-23 08:54:21 51°30.41 2°43.599 20.8334 0.071404 0.376074 -0.687152
2010-09-23 08:55:20 51°30.581 2°43.679 20.8421 0.071404 0.376109 -0.687152
2010-09-23 08:56:21 51°30.755 2°43.776 20.8476 0.071404 0.376155 -0.687152
2010-09-23 08:57:20 51°30.923 2°43.884 20.8707 0.071404 0.376178 -0.687152
2010-09-23 08:58:21 51°31.109 2°43.997 20.8514 0.071404 0.376212 -0.687152
2010-09-23 08:59:20 51°31.29 2°44.109 20.8642 0.071404 0.376235 -0.652328
2010-09-23 09:00:21 51°31.48 2°44.223 20.89 0.071404 0.376264 -0.687152
2010-09-23 09:01:21 51°31.666 2°44.335 20.886 0.071404 0.376299 -0.687152
2010-09-23 09:02:21 51°31.851 2°44.448 20.9021 0.071404 0.376339 -0.687152
2010-09-23 09:03:21 51°32.037 2°44.557 20.9262 0.071404 0.376379 -0.721976
2010-09-23 09:04:21 51°32.222 2°44.666 20.9272 0.071404 0.37642 -0.687152
2010-09-23 09:05:21 51°32.407 2°44.774 20.9346 0.071404 0.376449 -0.687152
2010-09-23 09:06:21 51°32.592 2°44.886 20.9593 0.071404 0.376478 -0.687152
2010-09-23 09:07:21 51°32.778 2°45.001 20.9641 0.071404 0.376501 -0.687152
2010-09-23 09:08:21 51°32.964 2°45.118 20.9373 0.071404 0.376535 -0.687152
2010-09-23 09:09:21 51°33.152 2°45.232 21.0036 0.071404 0.376564 -0.652328
2010-09-23 09:10:21 51°33.351 2°45.269 20.9977 0.071404 0.376587 -0.652328
2010-09-23 09:11:21 51°33.555 2°45.277 21.0067 0.071404 0.376605 -0.687152
2010-09-23 09:12:20 51°33.755 2°45.286 21.0278 0.071404 0.376645 -0.687152
2010-09-23 09:13:21 51°33.961 2°45.303 21.01 0.071404 0.376662 -0.652328
2010-09-23 09:14:21 51°34.164 2°45.321 21.0237 0.071404 0.376685 -0.687152
2010-09-23 09:15:20 51°34.361 2°45.338 21.0471 0.071404 0.376714 -0.687152
2010-09-23 09:16:21 51°34.558 2°45.405 21.0569 0.0713 0.376188 -0.687152
2010-09-23 09:17:20 51°34.746 2°45.488 21.0814 0.071404 0.376778 -0.687152
2010-09-23 09:18:21 51°34.942 2°45.577 21.0785 0.071404 0.376801 -0.721976
2010-09-23 09:19:21 51°35.134 2°45.675 21.0733 0.0713 0.376258 -0.721976
2010-09-23 09:20:21 51°35.321 2°45.789 21.1243 0.0713 0.376309 -0.687152
2010-09-23 09:21:21 51°35.511 2°45.894 21.1217 0.0713 0.376315 -0.687152
2010-09-23 09:22:21 51°35.703 2°45.997 21.1246 0.0713 0.37635 -0.721976
2010-09-23 09:23:21 51°35.893 2°46.108 21.13 0.0713 0.37635 -0.721976
2010-09-23 09:24:21 51°36.08 2°46.226 21.1775 0.0713 0.376419 -0.721976
2010-09-23 09:25:21 51°36.268 2°46.348 21.1843 0.0713 0.376437 -0.687152
2010-09-23 09:26:21 51°36.459 2°46.459 21.1869 0.0713 0.376454 -0.721976
2010-09-23 09:27:21 51°36.649 2°46.579 21.1898 0.0713 0.3765 -0.687152
2010-09-23 09:28:20 51°36.837 2°46.693 21.168 0.0713 0.376518 -0.652328
2010-09-23 09:29:21 51°37.033 2°46.804 21.209 0.0713 0.376546 -0.687152
2010-09-23 09:30:21 51°37.224 2°46.929 21.2144 0.0713 0.376575 -0.687152
2010-09-23 09:31:20 51°37.413 2°47.043 21.2289 0.0713 0.376604 -0.687152
2010-09-23 09:32:21 51°37.61 2°47.155 21.2174 0.0713 0.376633 -0.721976
2010-09-23 09:33:20 51°37.799 2°47.265 21.2602 0.0713 0.376668 -0.652328
2010-09-23 09:34:21 51°37.995 2°47.373 21.241 0.0713 0.376703 -0.687152
2010-09-23 09:35:20 51°38.183 2°47.49 21.2816 0.0713 0.376726 -0.721976
2010-09-23 09:36:21 51°38.376 2°47.601 21.2778 0.0713 0.376766 -0.652328
2010-09-23 09:37:20 51°38.562 2°47.719 21.2898 0.0713 0.376784 -0.721976
2010-09-23 09:38:21 51°38.755 2°47.834 21.2968 0.0713 0.376819 -0.687152
2010-09-23 09:39:21 51°38.948 2°47.945 21.3346 0.0713 0.376848 -0.721976
2010-09-23 09:40:21 51°39.137 2°48.066 21.3494 0.0713 0.376871 -0.687152
2010-09-23 09:41:21 51°39.327 2°48.177 21.3266 0.0713 0.376894 -0.721976
2010-09-23 09:42:21 51°39.517 2°48.293 21.3604 0.0713 0.376923 -0.721976
2010-09-23 09:43:21 51°39.707 2°48.407 21.3575 0.0713 0.376946 -0.721976
2010-09-23 09:44:21 51°39.894 2°48.532 21.3777 0.071196 0.376384 -0.687152
2010-09-23 09:45:21 51°40.08 2°48.654 21.3554 0.071196 0.376407 -0.687152
2010-09-23 09:46:21 51°40.267 2°48.772 21.3914 0.071196 0.376431 -0.721976
2010-09-23 09:47:21 51°40.459 2°48.889 21.3835 0.071196 0.376454 -0.687152
2010-09-23 09:48:21 51°40.65 2°49.003 21.413 0.071196 0.376483 -0.687152
2010-09-23 09:49:21 51°40.842 2°49.125 21.4174 0.071196 0.376506 -0.721976
2010-09-23 09:50:21 51°41.031 2°49.242 21.4214 0.071196 0.376523 -0.721976
2010-09-23 09:51:20 51°41.219 2°49.358 21.425 0.071196 0.376541 -0.687152
2010-09-23 09:52:21 51°41.412 2°49.476 21.4574 0.071196 0.376558 -0.721976
2010-09-23 09:53:20 51°41.601 2°49.577 21.4553 0.071196 0.376587 -0.721976
2010-09-23 09:54:21 51°41.807 2°49.563 21.4806 0.071196 0.376616 -0.687152
2010-09-23 09:55:20 51°41.995 2°49.423 21.5301 0.071196 0.376633 -0.652328
2010-09-23 09:56:21 51°42.153 2°49.182 21.478 0.071196 0.376657 -0.687152
2010-09-23 09:57:21 51°42.274 2°48.888 21.5031 0.071092 0.376152 -0.687152
2010-09-23 09:58:21 51°42.375 2°48.569 21.6119 0.071092 0.376152 -0.687152
2010-09-23 09:59:21 51°42.384 2°48.218 21.5415 0.071092 0.37621 -0.721976
2010-09-23 10:00:21 51°42.254 2°47.977 21.5872 0.071092 0.376204 -0.687152
2010-09-23 10:01:21 51°42.068 2°47.87 21.5647 0.071092 0.376233 -0.721976
2010-09-23 10:02:20 51°41.879 2°47.776 21.575 0.071092 0.37628 -0.721976
2010-09-23 10:03:21 51°41.685 2°47.677 21.5877 0.071092 0.376303 -0.687152
2010-09-23 10:04:20 51°41.499 2°47.57 21.5887 0.071092 0.376355 -0.721976
2010-09-23 10:05:21 51°41.307 2°47.458 21.5939 0.071092 0.376402 -0.721976
2010-09-23 10:06:20 51°41.124 2°47.337 21.6097 0.071092 0.376436 -0.721976
2010-09-23 10:07:21 51°40.936 2°47.212 21.6274 0.071092 0.376466 -0.652328
2010-09-23 10:08:21 51°40.75 2°47.089 21.6309 0.071092 0.3765 -0.721976
2010-09-23 10:09:21 51°40.563 2°46.973 21.6424 0.071092 0.376529 -0.687152
2010-09-23 10:10:21 51°40.375 2°46.863 21.654 0.071092 0.376564 -0.721976
2010-09-23 10:11:20 51°40.19 2°46.753 21.6721 0.071092 0.376587 -0.687152
2010-09-23 10:12:21 51°40 2°46.641 21.6709 0.071092 0.376622 -0.721976
2010-09-23 10:13:20 51°39.816 2°46.534 21.6856 0.071092 0.37664 -0.687152
2010-09-23 10:14:20 51°39.629 2°46.425 21.6948 0.071092 0.37668 -0.687152
2010-09-23 10:15:20 51°39.442 2°46.315 21.7041 0.071092 0.376704 -0.687152
2010-09-23 10:16:20 51°39.255 2°46.205 21.7146 0.071092 0.376739 -0.687152
2010-09-23 10:17:21 51°39.065 2°46.094 21.7154 0.071092 0.376762 -0.721976
2010-09-23 10:18:21 51°38.878 2°45.983 21.7383 0.071092 0.376803 -0.721976
2010-09-23 10:19:21 51°38.691 2°45.875 21.7389 0.071092 0.376826 -0.687152
2010-09-23 10:20:20 51°38.506 2°45.77 21.745 0.071092 0.376861 -0.721976
2010-09-23 10:21:21 51°38.317 2°45.66 21.7592 0.071092 0.376901 -0.721976
2010-09-23 10:22:20 51°38.134 2°45.554 21.7746 0.071092 0.376931 -0.687152
2010-09-23 10:23:21 51°37.944 2°45.444 21.783 0.071092 0.376966 -0.721976
2010-09-23 10:24:20 51°37.763 2°45.338 21.7783 0.071092 0.377 -0.721976
2010-09-23 10:25:21 51°37.572 2°45.23 21.8002 0.071092 0.37703 -0.721976
2010-09-23 10:26:20 51°37.391 2°45.124 21.8093 0.071092 0.377059 -0.687152
2010-09-23 10:27:20 51°37.206 2°45.015 21.8187 0.071092 0.377088 -0.687152
2010-09-23 10:28:21 51°37.02 2°44.906 21.816 0.071092 0.377111 -0.687152
2010-09-23 10:29:20 51°36.84 2°44.8 21.8215 0.071092 0.37714 -0.687152
2010-09-23 10:30:21 51°36.654 2°44.691 21.8541 0.071092 0.377164 -0.721976
2010-09-23 10:31:20 51°36.474 2°44.586 21.8529 0.071092 0.377181 -0.721976
2010-09-23 10:32:20 51°36.291 2°44.478 21.8644 0.071092 0.377204 -0.721976
2010-09-23 10:33:20 51°36.108 2°44.367 21.878 0.071092 0.377239 -0.687152
2010-09-23 10:34:21 51°35.922 2°44.257 21.8735 0.071092 0.377274 -0.687152
2010-09-23 10:35:21 51°35.741 2°44.147 21.8764 0.071092 0.377309 -0.687152
2010-09-23 10:36:21 51°35.56 2°44.038 21.9043 0.071092 0.377339 -0.687152
2010-09-23 10:37:21 51°35.379 2°43.929 21.9123 0.071092 0.37738 -0.652328
2010-09-23 10:38:20 51°35.201 2°43.822 21.9236 0.071092 0.377415 -0.721976
2010-09-23 10:39:21 51°35.018 2°43.712 21.9202 0.071092 0.377444 -0.652328
2010-09-23 10:40:20 51°34.84 2°43.607 21.9421 0.071092 0.377467 -0.687152
2010-09-23 10:41:21 51°34.657 2°43.497 21.9463 0.071092 0.377479 -0.687152
2010-09-23 10:42:20 51°34.48 2°43.391 21.9539 0.071092 0.377496 -0.687152
2010-09-23 10:43:21 51°34.298 2°43.282 21.9602 0.071092 0.377514 -0.687152
2010-09-23 10:44:21 51°34.117 2°43.176 21.9771 0.071092 0.377543 -0.721976
2010-09-23 10:45:21 51°33.938 2°43.072 21.9848 0.071092 0.377578 -0.687152
2010-09-23 10:46:21 51°33.758 2°42.967 21.9978 0.071092 0.377625 -0.721976
2010-09-23 10:47:20 51°33.583 2°42.864 21.9924 0.071092 0.377672 -0.687152
2010-09-23 10:48:21 51°33.401 2°42.76 22.0032 0.071092 0.377719 -0.7568
2010-09-23 10:49:20 51°33.226 2°42.658 22.0148 0.071092 0.377742 -0.687152
2010-09-23 10:50:21 51°33.045 2°42.554 22.0348 0.071092 0.377771 -0.687152
2010-09-23 10:51:20 51°32.871 2°42.455 22.0424 0.071092 0.377783 -0.721976
2010-09-23 10:52:21 51°32.691 2°42.354 22.0606 0.071092 0.377806 -0.721976
2010-09-23 10:53:20 51°32.515 2°42.255 22.0568 0.071092 0.377841 -0.687152
2010-09-23 10:54:21 51°32.334 2°42.153 22.0801 0.071092 0.377877 -0.721976
2010-09-23 10:55:21 51°32.158 2°42.055 22.0846 0.071092 0.377918 -0.721976
2010-09-23 10:56:20 51°31.985 2°41.958 22.0832 0.071092 0.377947 -0.7568
2010-09-23 10:57:21 51°31.813 2°41.843 22.0731 0.071092 0.377988 -0.721976
2010-09-23 10:58:20 51°31.766 2°41.578 22.1291 0.071092 0.378064 -0.687152
2010-09-23 10:59:21 51°31.768 2°41.276 22.1011 0.071092 0.378064 -0.687152
2010-09-23 11:00:20 51°31.772 2°40.982 22.1239 0.071092 0.378117 -0.721976
2010-09-23 11:01:21 51°31.778 2°40.679 22.1404 0.071092 0.378164 -0.687152
2010-09-23 11:02:20 51°31.784 2°40.387 22.1449 0.071092 0.378187 -0.721976
2010-09-23 11:03:21 51°31.791 2°40.084 22.1246 0.071092 0.378211 -0.687152
2010-09-23 11:04:21 51°31.807 2°39.788 22.1172 0.071092 0.378223 -0.687152
2010-09-23 11:05:20 51°31.955 2°39.635 22.169 0.071092 0.378287 -0.721976
2010-09-23 11:06:21 51°32.148 2°39.577 22.1755 0.071092 0.378334 -0.721976
2010-09-23 11:07:21 51°32.34 2°39.532 22.1897 0.071092 0.378363 -0.687152
2010-09-23 11:08:21 51°32.536 2°39.537 22.1649 0.071092 0.378416 -0.721976
2010-09-23 11:09:20 51°32.717 2°39.661 22.174 0.071092 0.378422 -0.721976
2010-09-23 11:10:21 51°32.891 2°39.837 22.1923 0.071092 0.378457 -0.721976
2010-09-23 11:11:20 51°33.032 2°40.066 22.1906 0.071092 0.378481 -0.687152
2010-09-23 11:12:21 51°33.165 2°40.308 22.2263 0.071092 0.378534 -0.721976
2010-09-23 11:13:21 51°33.295 2°40.543 22.2224 0.071092 0.378557 -0.7568
2010-09-23 11:14:20 51°33.432 2°40.755 22.2579 0.071092 0.378581 -0.721976
2010-09-23 11:15:21 51°33.606 2°40.904 22.2596 0.071092 0.378599 -0.721976
2010-09-23 11:16:21 51°33.796 2°40.964 22.2661 0.071092 0.378628 -0.687152
2010-09-23 11:17:21 51°33.985 2°41.026 22.2693 0.071092 0.378652 -0.687152
2010-09-23 11:18:20 51°34.166 2°41.123 22.2963 0.071092 0.378675 -0.721976
2010-09-23 11:19:21 51°34.351 2°41.251 22.2703 0.071092 0.378705 -0.721976
2010-09-23 11:20:20 51°34.53 2°41.369 22.3194 0.071092 0.378722 -0.721976
2010-09-23 11:21:20 51°34.711 2°41.492 22.3325 0.071092 0.378752 -0.687152
2010-09-23 11:22:21 51°34.898 2°41.619 22.3159 0.070988 0.378197 -0.721976
2010-09-23 11:23:21 51°35.081 2°41.74 22.3778 0.070988 0.378221 -0.687152
2010-09-23 11:24:21 51°35.267 2°41.715 22.3766 0.070988 0.378256 -0.721976
2010-09-23 11:25:21 51°35.453 2°41.631 22.3666 0.070988 0.378285 -0.721976
2010-09-23 11:26:21 51°35.638 2°41.55 22.393 0.070988 0.378315 -0.687152
2010-09-23 11:27:20 51°35.824 2°41.49 22.3717 0.070988 0.378344 -0.721976
2010-09-23 11:28:21 51°36.019 2°41.57 22.3627 0.070988 0.378379 -0.721976
2010-09-23 11:29:20 51°36.206 2°41.669 22.3961 0.070988 0.378391 -0.7568
2010-09-23 11:30:20 51°36.393 2°41.792 22.3957 0.070988 0.378432 -0.721976
2010-09-23 11:31:21 51°36.583 2°41.919 22.4258 0.070988 0.378456 -0.721976
2010-09-23 11:32:20 51°36.765 2°42.038 22.415 0.070988 0.378485 -0.721976
2010-09-23 11:33:21 51°36.953 2°42.162 22.4334 0.070988 0.378509 -0.721976
2010-09-23 11:34:20 51°37.136 2°42.276 22.4507 0.070988 0.378539 -0.721976
2010-09-23 11:35:21 51°37.317 2°42.426 22.4185 0.070988 0.378556 -0.7568
2010-09-23 11:36:20 51°37.493 2°42.573 22.4716 0.070988 0.378568 -0.687152
2010-09-23 11:37:21 51°37.677 2°42.724 22.4746 0.070988 0.378597 -0.721976
2010-09-23 11:38:20 51°37.854 2°42.873 22.4279 0.070988 0.378603 -0.687152
2010-09-23 11:39:20 51°38.033 2°43.021 22.4623 0.070884 0.37806 -0.721976
2010-09-23 11:40:21 51°38.217 2°43.172 22.4757 0.070884 0.378072 -0.721976
2010-09-23 11:41:20 51°38.396 2°43.318 22.495 0.070884 0.378095 -0.721976
2010-09-23 11:42:21 51°38.58 2°43.467 22.445 0.070884 0.378131 -0.721976
2010-09-23 11:43:21 51°38.763 2°43.613 22.4881 0.070884 0.378142 -0.687152
2010-09-23 11:44:21 51°38.945 2°43.761 22.4883 0.070884 0.37816 -0.687152
2010-09-23 11:45:20 51°39.123 2°43.907 22.5145 0.070884 0.37819 -0.721976
2010-09-23 11:46:21 51°39.309 2°44.057 22.5388 0.070884 0.378195 -0.721976
2010-09-23 11:47:20 51°39.489 2°44.205 22.6473 0.070884 0.378225 -0.721976
2010-09-23 11:48:21 51°39.676 2°44.358 22.6059 0.070884 0.378231 -0.687152
2010-09-23 11:49:21 51°39.86 2°44.506 22.5937 0.070884 0.378254 -0.687152
2010-09-23 11:50:20 51°40.04 2°44.65 22.5913 0.070884 0.378278 -0.687152
2010-09-23 11:51:21 51°40.226 2°44.802 22.5892 0.070884 0.37829 -0.687152
2010-09-23 11:52:20 51°40.405 2°44.949 22.5884 0.070884 0.378296 -0.721976
2010-09-23 11:53:21 51°40.592 2°45.1 22.585 0.070884 0.378325 -0.687152
2010-09-23 11:54:20 51°40.775 2°45.238 22.5923 0.07078 0.377775 -0.687152
2010-09-23 11:55:21 51°40.97 2°45.356 22.5951 0.07078 0.377787 -0.7568
2010-09-23 11:56:20 51°41.158 2°45.47 22.5981 0.07078 0.377805 -0.721976
2010-09-23 11:57:21 51°41.349 2°45.59 22.6026 0.07078 0.377828 -0.687152
2010-09-23 11:58:20 51°41.532 2°45.707 22.6068 0.07078 0.37784 -0.721976
2010-09-23 11:59:21 51°41.721 2°45.828 22.6106 0.07078 0.37787 -0.721976
2010-09-23 12:00:21 51°41.908 2°45.947 22.6132 0.07078 0.377887 -0.687152
2010-09-23 12:01:21 51°42.094 2°46.07 22.6192 0.07078 0.377893 -0.687152
2010-09-23 12:02:21 51°42.285 2°46.168 22.6259 0.07078 0.377911 -0.721976
2010-09-23 12:03:21 51°42.478 2°46.191 22.6362 0.07078 0.37794 -0.721976
2010-09-23 12:04:21 51°42.626 2°46.036 22.635 0.07078 0.37794 -0.721976
2010-09-23 12:05:21 51°42.768 2°45.817 22.6353 0.07078 0.377958 -0.721976
2010-09-23 12:06:21 51°42.915 2°45.6 22.6468 0.07078 0.377982 -0.721976
2010-09-23 12:07:19 51°43.043 2°45.374 22.6443 0.07078 0.377999 -0.687152
2010-09-23 12:08:20 51°43.175 2°45.129 22.6524 0.07078 0.378011 -0.721976
2010-09-23 12:09:21 51°43.306 2°44.885 22.6574 0.07078 0.378064 -0.687152
2010-09-23 12:10:20 51°43.416 2°44.636 22.6644 0.07078 0.378058 -0.721976
2010-09-23 12:11:20 51°43.523 2°44.375 22.6714 0.07078 0.378076 -0.721976
2010-09-23 12:12:20 51°43.62 2°44.111 22.6752 0.07078 0.378117 -0.687152
2010-09-23 12:13:20 51°43.675 2°43.825 22.676 0.07078 0.378117 -0.687152
2010-09-23 12:14:20 51°43.664 2°43.55 22.679 0.07078 0.378176 -0.687152
2010-09-23 12:15:20 51°43.519 2°43.435 22.6786 0.070676 0.377573 -0.721976
2010-09-23 12:16:19 51°43.351 2°43.344 22.685 0.070676 0.377614 -0.721976
2010-09-23 12:17:20 51°43.169 2°43.242 22.6939 0.070676 0.377632 -0.687152
2010-09-23 12:18:21 51°42.986 2°43.149 22.6992 0.070676 0.377662 -0.721976
2010-09-23 12:19:20 51°42.806 2°43.071 22.7044 0.070676 0.377673 -0.721976
2010-09-23 12:20:21 51°42.621 2°42.99 22.7103 0.070676 0.377703 -0.687152
2010-09-23 12:21:20 51°42.442 2°42.914 22.7146 0.070676 0.377726 -0.687152
2010-09-23 12:22:21 51°42.257 2°42.834 22.7227 0.070676 0.377744 -0.721976
2010-09-23 12:23:19 51°42.08 2°42.756 22.7271 0.070676 0.377768 -0.721976
2010-09-23 12:24:20 51°41.898 2°42.663 22.7377 0.070676 0.377791 -0.721976
2010-09-23 12:25:19 51°41.723 2°42.567 22.7431 0.070676 0.377809 -0.721976
2010-09-23 12:26:20 51°41.543 2°42.469 22.7466 0.070676 0.377833 -0.721976
2010-09-23 12:27:20 51°41.365 2°42.372 22.7521 0.070676 0.37785 -0.721976
2010-09-23 12:28:20 51°41.187 2°42.276 22.7574 0.070676 0.377868 -0.687152
2010-09-23 12:29:20 51°41.008 2°42.18 22.7611 0.070676 0.377886 -0.721976
2010-09-23 12:30:21 51°40.827 2°42.083 22.7698 0.070676 0.377903 -0.687152
2010-09-23 12:31:21 51°40.65 2°41.988 22.7738 0.070676 0.377921 -0.721976
2010-09-23 12:32:20 51°40.475 2°41.895 22.7829 0.070676 0.377939 -0.721976
2010-09-23 12:33:20 51°40.299 2°41.803 22.7835 0.070572 0.377382 -0.721976
2010-09-23 12:34:20 51°40.122 2°41.708 22.7949 0.070676 0.37798 -0.721976
2010-09-23 12:35:20 51°39.947 2°41.613 22.7989 0.070676 0.377998 -0.687152
2010-09-23 12:36:19 51°39.774 2°41.52 22.8059 0.070676 0.378016 -0.721976
2010-09-23 12:37:20 51°39.596 2°41.423 22.8076 0.070676 0.378039 -0.687152
2010-09-23 12:38:21 51°39.419 2°41.329 22.8114 0.070572 0.377488 -0.721976
2010-09-23 12:39:20 51°39.248 2°41.241 22.8199 0.070572 0.377506 -0.687152
2010-09-23 12:40:21 51°39.073 2°41.142 22.829 0.070572 0.377524 -0.721976
2010-09-23 12:41:20 51°38.904 2°41.046 22.8249 0.070572 0.37753 -0.721976
2010-09-23 12:42:21 51°38.728 2°40.947 22.84 0.070572 0.377553 -0.687152
2010-09-23 12:43:20 51°38.558 2°40.854 22.8383 0.070572 0.377571 -0.721976
2010-09-23 12:44:21 51°38.385 2°40.76 22.8504 0.070572 0.377595 -0.721976
2010-09-23 12:45:20 51°38.216 2°40.666 22.8448 0.070572 0.377612 -0.687152
2010-09-23 12:46:21 51°38.041 2°40.569 22.8596 0.070572 0.37763 -0.687152
2010-09-23 12:47:20 51°37.871 2°40.475 22.8618 0.070572 0.377648 -0.687152
2010-09-23 12:48:21 51°37.697 2°40.374 22.8706 0.070572 0.37766 -0.687152
2010-09-23 12:49:20 51°37.527 2°40.277 22.8748 0.070572 0.377683 -0.721976
2010-09-23 12:50:20 51°37.355 2°40.177 22.8831 0.070572 0.377695 -0.687152
2010-09-23 12:51:20 51°37.183 2°40.075 22.886 0.070572 0.377719 -0.687152
2010-09-23 12:52:19 51°37.014 2°39.975 22.8945 0.070572 0.377731 -0.721976
2010-09-23 12:53:20 51°36.839 2°39.869 22.9001 0.070572 0.377754 -0.721976
2010-09-23 12:54:20 51°36.667 2°39.766 22.9031 0.070572 0.37776 -0.687152
2010-09-23 12:55:20 51°36.496 2°39.66 22.9101 0.070572 0.377784 -0.687152
2010-09-23 12:56:19 51°36.327 2°39.558 22.9186 0.070572 0.377796 -0.721976
2010-09-23 12:57:20 51°36.153 2°39.452 22.9247 0.070572 0.377813 -0.721976
2010-09-23 12:58:21 51°35.978 2°39.345 22.9306 0.070572 0.377831 -0.687152
2010-09-23 12:59:19 51°35.811 2°39.244 22.9359 0.070572 0.377849 -0.721976
2010-09-23 13:00:20 51°35.637 2°39.139 22.9424 0.070572 0.377861 -0.721976
2010-09-23 13:01:20 51°35.466 2°39.034 22.945 0.070572 0.377884 -0.687152
2010-09-23 13:02:21 51°35.292 2°38.929 22.9535 0.070468 0.377321 -0.721976
2010-09-23 13:03:20 51°35.124 2°38.826 22.9656 0.070572 0.377908 -0.687152
2010-09-23 13:04:21 51°34.951 2°38.721 22.9607 0.070468 0.377351 -0.687152
2010-09-23 13:05:20 51°34.784 2°38.618 22.9732 0.070468 0.377368 -0.721976
2010-09-23 13:06:20 51°34.614 2°38.514 22.9838 0.070468 0.37738 -0.687152
2010-09-23 13:07:20 51°34.439 2°38.432 22.9872 0.070468 0.377398 -0.687152
2010-09-23 13:08:20 51°34.263 2°38.352 22.9897 0.070468 0.377416 -0.687152
2010-09-23 13:09:21 51°34.085 2°38.271 22.9913 0.070468 0.377427 -0.687152
2010-09-23 13:10:20 51°33.913 2°38.192 23 0.070468 0.377445 -0.721976
2010-09-23 13:11:21 51°33.737 2°38.109 23.0077 0.070468 0.377463 -0.687152
2010-09-23 13:12:20 51°33.564 2°38.031 23.0103 0.070468 0.377481 -0.687152
2010-09-23 13:13:20 51°33.39 2°37.951 23.0122 0.070468 0.377492 -0.687152
2010-09-23 13:14:20 51°33.215 2°37.869 23.0276 0.070468 0.377504 -0.687152
2010-09-23 13:15:20 51°33.041 2°37.787 23.026 0.070468 0.377516 -0.687152
2010-09-23 13:16:21 51°32.863 2°37.704 23.0311 0.070468 0.377534 -0.687152
2010-09-23 13:17:20 51°32.691 2°37.625 23.0478 0.070468 0.377546 -0.687152
2010-09-23 13:18:20 51°32.517 2°37.544 23.0468 0.070468 0.377563 -0.721976
2010-09-23 13:19:20 51°32.342 2°37.464 23.0638 0.070468 0.377575 -0.721976
2010-09-23 13:20:20 51°32.166 2°37.383 23.0636 0.070468 0.377587 -0.687152
2010-09-23 13:21:20 51°31.991 2°37.301 23.063 0.070468 0.377593 -0.687152
2010-09-23 13:22:20 51°31.815 2°37.22 23.0734 0.070468 0.377617 -0.687152
2010-09-23 13:23:20 51°31.64 2°37.137 23.0866 0.070468 0.377623 -0.721976
2010-09-23 13:24:20 51°31.465 2°37.056 23.0838 0.070468 0.37764 -0.687152
2010-09-23 13:25:20 51°31.289 2°36.973 23.0921 0.070468 0.377652 -0.687152
2010-09-23 13:26:20 51°31.114 2°36.89 23.0957 0.070468 0.377664 -0.721976
2010-09-23 13:27:20 51°30.939 2°36.808 23.1047 0.070468 0.377676 -0.721976
2010-09-23 13:28:20 51°30.763 2°36.727 23.1107 0.070364 0.377118 -0.687152
2010-09-23 13:29:20 51°30.586 2°36.647 23.1116 0.070364 0.377124 -0.687152
2010-09-23 13:30:20 51°30.409 2°36.566 23.1294 0.070364 0.377136 -0.687152
2010-09-23 13:31:20 51°30.232 2°36.486 23.1144 0.070364 0.377148 -0.721976
2010-09-23 13:32:20 51°30.054 2°36.408 23.132 0.070364 0.377159 -0.687152
2010-09-23 13:33:20 51°29.877 2°36.329 23.1352 0.070364 0.377177 -0.687152
2010-09-23 13:34:19 51°29.702 2°36.254 23.1402 0.070364 0.377183 -0.721976
2010-09-23 13:35:20 51°29.524 2°36.178 23.1508 0.070364 0.377201 -0.687152
2010-09-23 13:36:20 51°29.348 2°36.105 23.1583 0.070364 0.377207 -0.687152
2010-09-23 13:37:20 51°29.17 2°36.033 23.1573 0.070364 0.377224 -0.721976
2010-09-23 13:38:21 51°28.99 2°35.956 23.1669 0.070364 0.37723 -0.687152
2010-09-23 13:39:20 51°28.814 2°35.885 23.1778 0.070364 0.377242 -0.721976
2010-09-23 13:40:20 51°28.636 2°35.812 23.1786 0.070364 0.37726 -0.721976
2010-09-23 13:41:21 51°28.452 2°35.736 23.2103 0.070364 0.377266 -0.721976
2010-09-23 13:42:20 51°28.286 2°35.848 23.1536 0.070364 0.377295 -0.687152
2010-09-23 13:43:20 51°28.144 2°36.094 23.193 0.070364 0.377284 -0.687152
2010-09-23 13:44:20 51°28.003 2°36.332 23.1927 0.070364 0.377301 -0.721976
2010-09-23 13:45:21 51°27.862 2°36.576 23.2119 0.070364 0.377319 -0.687152
2010-09-23 13:46:20 51°27.726 2°36.811 23.1975 0.070364 0.377331 -0.687152
2010-09-23 13:47:20 51°27.588 2°37.048 23.2043 0.070364 0.377331 -0.721976
2010-09-23 13:48:20 51°27.452 2°37.287 23.2211 0.070364 0.377337 -0.721976
2010-09-23 13:49:20 51°27.318 2°37.529 23.2238 0.070364 0.377361 -0.721976
2010-09-23 13:50:20 51°27.187 2°37.772 23.2302 0.070364 0.377367 -0.687152
2010-09-23 13:51:20 51°27.053 2°38.011 23.2296 0.070364 0.377384 -0.687152
2010-09-23 13:52:20 51°26.92 2°38.254 23.239 0.070364 0.377396 -0.687152
2010-09-23 13:53:20 51°26.788 2°38.497 23.2329 0.070364 0.377402 -0.687152
2010-09-23 13:54:20 51°26.648 2°38.725 23.2587 0.07026 0.376832 -0.687152
2010-09-23 13:55:20 51°26.507 2°38.951 23.2502 0.070364 0.377408 -0.721976
2010-09-23 13:56:20 51°26.366 2°39.177 23.2659 0.07026 0.37685 -0.721976
2010-09-23 13:57:20 51°26.223 2°39.401 23.2585 0.070364 0.377432 -0.687152
2010-09-23 13:58:20 51°26.08 2°39.626 23.281 0.07026 0.376867 -0.687152
2010-09-23 13:59:20 51°25.937 2°39.851 23.265 0.07026 0.376873 -0.687152
2010-09-23 14:00:20 51°25.789 2°40.063 23.2797 0.07026 0.376885 -0.687152
2010-09-23 14:01:20 51°25.639 2°40.269 23.2938 0.07026 0.376891 -0.687152
2010-09-23 14:02:20 51°25.489 2°40.472 23.2967 0.07026 0.376897 -0.687152
2010-09-23 14:03:20 51°25.338 2°40.673 23.2849 0.07026 0.376909 -0.721976
2010-09-23 14:04:20 51°25.188 2°40.879 23.3097 0.07026 0.376921 -0.687152
2010-09-23 14:05:20 51°25.04 2°41.086 23.3008 0.07026 0.376921 -0.721976
2010-09-23 14:06:20 51°24.894 2°41.3 23.3261 0.07026 0.376927 -0.687152
2010-09-23 14:07:20 51°24.748 2°41.51 23.313 0.07026 0.376938 -0.687152
2010-09-23 14:08:20 51°24.601 2°41.716 23.318 0.07026 0.376944 -0.687152
2010-09-23 14:09:20 51°24.451 2°41.922 23.3362 0.07026 0.37695 -0.7568
2010-09-23 14:10:20 51°24.3 2°42.126 23.3417 0.07026 0.376962 -0.721976
2010-09-23 14:11:20 51°24.153 2°42.338 23.3352 0.07026 0.376962 -0.721976
2010-09-23 14:12:20 51°24.009 2°42.562 23.3462 0.07026 0.376962 -0.652328
2010-09-23 14:13:20 51°23.864 2°42.785 23.3426 0.07026 0.376974 -0.687152
2010-09-23 14:14:20 51°23.716 2°43.004 23.3615 0.07026 0.376974 -0.687152
2010-09-23 14:15:20 51°23.569 2°43.229 23.3714 0.07026 0.37698 -0.721976
2010-09-23 14:16:20 51°23.426 2°43.457 23.3651 0.07026 0.376992 -0.687152
2010-09-23 14:17:20 51°23.299 2°43.72 23.3828 0.07026 0.37698 -0.687152
2010-09-23 14:18:20 51°23.171 2°43.973 23.3838 0.07026 0.376998 -0.687152
2010-09-23 14:19:20 51°23.039 2°44.211 23.3752 0.07026 0.376998 -0.721976
2010-09-23 14:20:20 51°22.909 2°44.448 23.3926 0.07026 0.377003 -0.687152
2010-09-23 14:21:20 51°22.778 2°44.685 23.3806 0.07026 0.377003 -0.721976
2010-09-23 14:22:20 51°22.648 2°44.922 23.3983 0.07026 0.377009 -0.687152
2010-09-23 14:23:20 51°22.517 2°45.157 23.4075 0.07026 0.377015 -0.721976
2010-09-23 14:24:20 51°22.384 2°45.388 23.4113 0.07026 0.377021 -0.721976
2010-09-23 14:25:20 51°22.242 2°45.6 23.409 0.070156 0.376457 -0.721976
2010-09-23 14:26:20 51°22.096 2°45.803 23.4274 0.07026 0.377039 -0.687152
2010-09-23 14:27:20 51°21.952 2°46.012 23.4152 0.070156 0.376469 -0.687152
2010-09-23 14:28:20 51°21.805 2°46.219 23.4336 0.070156 0.376469 -0.687152
2010-09-23 14:29:20 51°21.657 2°46.43 23.4354 0.07026 0.377051 -0.687152
2010-09-23 14:30:20 51°21.506 2°46.638 23.4352 0.070156 0.376486 -0.721976
2010-09-23 14:31:20 51°21.355 2°46.854 23.4493 0.070156 0.376486 -0.721976
2010-09-23 14:32:20 51°21.202 2°47.07 23.454 0.070156 0.376498 -0.721976
2010-09-23 14:33:20 51°21.05 2°47.28 23.4537 0.070156 0.376492 -0.687152
2010-09-23 14:34:20 51°20.899 2°47.492 23.4626 0.070156 0.376498 -0.687152
2010-09-23 14:35:20 51°20.747 2°47.697 23.4698 0.070156 0.376504 -0.652328
2010-09-23 14:36:20 51°20.596 2°47.906 23.4797 0.070156 0.37651 -0.687152
2010-09-23 14:37:20 51°20.445 2°48.114 23.459 0.070156 0.376516 -0.687152
2010-09-23 14:38:20 51°20.294 2°48.323 23.4901 0.070156 0.376516 -0.687152
2010-09-23 14:39:20 51°20.143 2°48.533 23.4713 0.070156 0.376516 -0.687152
2010-09-23 14:40:20 51°19.994 2°48.745 23.4972 0.070156 0.376522 -0.721976
2010-09-23 14:41:20 51°19.843 2°48.956 23.4969 0.070156 0.376528 -0.721976
2010-09-23 14:42:20 51°19.695 2°49.164 23.5002 0.070156 0.376534 -0.7568
2010-09-23 14:43:20 51°19.544 2°49.373 23.4821 0.070156 0.37654 -0.687152
2010-09-23 14:44:20 51°19.392 2°49.576 23.5125 0.070156 0.37654 -0.687152
2010-09-23 14:45:20 51°19.241 2°49.778 23.4946 0.070156 0.37654 -0.687152
2010-09-23 14:46:20 51°19.088 2°49.978 23.5123 0.070156 0.37654 -0.687152
2010-09-23 14:47:20 51°18.936 2°50.182 23.5171 0.070156 0.376545 -0.687152
2010-09-23 14:48:20 51°18.785 2°50.387 23.5336 0.070156 0.376545 -0.687152
2010-09-23 14:49:20 51°18.636 2°50.591 23.5252 0.070156 0.376545 -0.687152
2010-09-23 14:50:20 51°18.485 2°50.794 23.546 0.070156 0.376551 -0.687152
2010-09-23 14:51:20 51°18.335 2°51 23.5431 0.070156 0.376551 -0.721976
2010-09-23 14:52:21 51°18.184 2°51.208 23.5524 0.070156 0.376563 -0.721976
2010-09-23 14:53:20 51°18.038 2°51.408 23.5578 0.070156 0.376563 -0.721976
2010-09-23 14:54:20 51°17.889 2°51.61 23.5507 0.070052 0.375987 -0.721976
2010-09-23 14:55:20 51°17.733 2°51.794 23.5564 0.070052 0.375987 -0.687152
2010-09-23 14:56:20 51°17.574 2°51.973 23.5577 0.070052 0.375999 -0.721976
2010-09-23 14:57:20 51°17.412 2°52.148 23.5616 0.070052 0.375999 -0.687152
2010-09-23 14:58:20 51°17.249 2°52.316 23.5659 0.070052 0.375993 -0.721976
2010-09-23 14:59:20 51°17.082 2°52.472 23.5851 0.070052 0.375999 -0.721976
2010-09-23 15:00:20 51°16.913 2°52.618 23.5709 0.070052 0.376004 -0.721976
2010-09-23 15:01:20 51°16.742 2°52.764 23.5797 0.070052 0.375999 -0.721976
2010-09-23 15:02:19 51°16.573 2°52.91 23.597 0.070052 0.37601 -0.652328
2010-09-23 15:03:20 51°16.396 2°53.057 23.5995 0.070052 0.37601 -0.687152
2010-09-23 15:04:19 51°16.225 2°53.203 23.5954 0.070052 0.376004 -0.687152
2010-09-23 15:05:20 51°16.045 2°53.338 23.6071 0.070052 0.37601 -0.687152
2010-09-23 15:06:20 51°15.868 2°53.476 23.6145 0.070052 0.376004 -0.687152
2010-09-23 15:07:20 51°15.701 2°53.645 23.6191 0.070052 0.37601 -0.721976
2010-09-23 15:08:20 51°15.538 2°53.83 23.6213 0.070052 0.376004 -0.721976
2010-09-23 15:09:20 51°15.375 2°54.012 23.6266 0.070052 0.37601 -0.687152
2010-09-23 15:10:20 51°15.214 2°54.199 23.6313 0.070052 0.376016 -0.687152
2010-09-23 15:11:20 51°15.056 2°54.39 23.6356 0.070052 0.376016 -0.687152
2010-09-23 15:12:19 51°14.901 2°54.583 23.6294 0.070052 0.376016 -0.687152
2010-09-23 15:13:20 51°14.737 2°54.772 23.6367 0.070052 0.37601 -0.687152
2010-09-23 15:14:19 51°14.577 2°54.945 23.6431 0.070052 0.37601 -0.721976
2010-09-23 15:15:20 51°14.409 2°55.124 23.6581 0.070052 0.376016 -0.687152
2010-09-23 15:16:20 51°14.253 2°55.294 23.6654 0.070052 0.376028 -0.7568
2010-09-23 15:17:20 51°14.12 2°55.414 23.7028 0.070052 0.376034 -0.687152
2010-09-23 15:18:19 51°14.003 2°55.5 23.7092 0.070052 0.376028 -0.652328
2010-09-23 15:19:20 51°13.904 2°55.573 23.72 0.070052 0.376028 -0.687152
2010-09-23 15:20:19 51°13.812 2°55.644 23.7435 0.070052 0.376028 -0.687152
2010-09-23 15:21:20 51°13.742 2°55.748 23.7183 0.069948 0.375452 -0.687152
2010-09-23 15:22:24 51°13.691 2°55.851 23.7197 0.069948 0.375452 -0.721976
2010-09-23 15:23:24 51°13.668 2°55.941 23.71 0.069948 0.375446 -0.687152